sensor_id;sensor_type;location;lat;lon;timestamp;temperature;humidity
3300;DHT22;1662;49.310;8.134;2023-06-14T00:00:52;20.60;60.40
3300;DHT22;1662;49.310;8.134;2023-06-14T00:03:22;20.50;60.20
3300;DHT22;1662;49.310;8.134;2023-06-14T00:05:50;20.50;60.50
3300;DHT22;1662;49.310;8.134;2023-06-14T00:08:15;20.40;60.60
3300;DHT22;1662;49.310;8.134;2023-06-14T00:10:41;20.40;60.80
3300;DHT22;1662;49.310;8.134;2023-06-14T00:13:08;20.40;60.50
3300;DHT22;1662;49.310;8.134;2023-06-14T00:15:34;20.40;60.30
3300;DHT22;1662;49.310;8.134;2023-06-14T00:18:00;20.40;61.00
3300;DHT22;1662;49.310;8.134;2023-06-14T00:20:30;20.30;60.90
3300;DHT22;1662;49.310;8.134;2023-06-14T00:22:59;20.30;60.90
3300;DHT22;1662;49.310;8.134;2023-06-14T00:25:25;20.40;59.30
3300;DHT22;1662;49.310;8.134;2023-06-14T00:27:52;20.40;61.10
3300;DHT22;1662;49.310;8.134;2023-06-14T00:30:20;20.40;60.80
3300;DHT22;1662;49.310;8.134;2023-06-14T00:32:46;20.40;61.20
3300;DHT22;1662;49.310;8.134;2023-06-14T00:35:12;20.40;61.30
3300;DHT22;1662;49.310;8.134;2023-06-14T00:37:39;20.30;61.60
3300;DHT22;1662;49.310;8.134;2023-06-14T00:40:05;20.30;61.70
3300;DHT22;1662;49.310;8.134;2023-06-14T00:42:32;20.20;61.50
3300;DHT22;1662;49.310;8.134;2023-06-14T00:44:58;20.20;61.70
3300;DHT22;1662;49.310;8.134;2023-06-14T00:47:24;20.20;61.30
3300;DHT22;1662;49.310;8.134;2023-06-14T00:49:51;20.20;61.70
3300;DHT22;1662;49.310;8.134;2023-06-14T00:52:18;20.20;61.80
3300;DHT22;1662;49.310;8.134;2023-06-14T00:54:44;20.20;61.00
3300;DHT22;1662;49.310;8.134;2023-06-14T00:57:11;20.20;61.60
3300;DHT22;1662;49.310;8.134;2023-06-14T00:59:45;20.20;61.70
3300;DHT22;1662;49.310;8.134;2023-06-14T01:02:11;20.20;61.90
3300;DHT22;1662;49.310;8.134;2023-06-14T01:04:38;20.20;62.00
3300;DHT22;1662;49.310;8.134;2023-06-14T01:07:09;20.10;62.10
3300;DHT22;1662;49.310;8.134;2023-06-14T01:12:37;20.00;62.70
3300;DHT22;1662;49.310;8.134;2023-06-14T01:15:04;20.00;63.10
3300;DHT22;1662;49.310;8.134;2023-06-14T01:17:30;19.90;62.80
3300;DHT22;1662;49.310;8.134;2023-06-14T01:20:01;19.80;63.20
3300;DHT22;1662;49.310;8.134;2023-06-14T01:22:28;19.80;63.70
3300;DHT22;1662;49.310;8.134;2023-06-14T01:24:54;19.80;63.40
3300;DHT22;1662;49.310;8.134;2023-06-14T01:27:24;19.70;63.60
3300;DHT22;1662;49.310;8.134;2023-06-14T01:29:55;19.70;63.70
3300;DHT22;1662;49.310;8.134;2023-06-14T01:32:26;19.70;64.00
3300;DHT22;1662;49.310;8.134;2023-06-14T01:34:52;19.70;64.00
3300;DHT22;1662;49.310;8.134;2023-06-14T01:37:19;19.60;63.90
3300;DHT22;1662;49.310;8.134;2023-06-14T01:39:45;19.60;64.10
3300;DHT22;1662;49.310;8.134;2023-06-14T01:42:13;19.50;64.10
3300;DHT22;1662;49.310;8.134;2023-06-14T01:44:40;19.50;64.20
3300;DHT22;1662;49.310;8.134;2023-06-14T01:47:07;19.50;64.20
3300;DHT22;1662;49.310;8.134;2023-06-14T01:49:34;19.50;64.50
3300;DHT22;1662;49.310;8.134;2023-06-14T01:52:00;19.50;65.40
3300;DHT22;1662;49.310;8.134;2023-06-14T01:54:26;19.50;65.40
3300;DHT22;1662;49.310;8.134;2023-06-14T01:56:54;19.40;65.60
3300;DHT22;1662;49.310;8.134;2023-06-14T01:59:20;19.40;65.90
3300;DHT22;1662;49.310;8.134;2023-06-14T02:01:45;19.30;65.80
3300;DHT22;1662;49.310;8.134;2023-06-14T02:04:11;19.30;65.70
3300;DHT22;1662;49.310;8.134;2023-06-14T02:06:37;19.20;65.80
3300;DHT22;1662;49.310;8.134;2023-06-14T02:09:03;19.20;65.60
3300;DHT22;1662;49.310;8.134;2023-06-14T02:11:29;19.20;65.80
3300;DHT22;1662;49.310;8.134;2023-06-14T02:13:55;19.20;65.90
3300;DHT22;1662;49.310;8.134;2023-06-14T02:16:21;19.20;65.90
3300;DHT22;1662;49.310;8.134;2023-06-14T02:18:47;19.10;65.70
3300;DHT22;1662;49.310;8.134;2023-06-14T02:21:14;19.10;66.10
3300;DHT22;1662;49.310;8.134;2023-06-14T02:23:39;19.10;66.30
3300;DHT22;1662;49.310;8.134;2023-06-14T02:26:05;19.10;66.50
3300;DHT22;1662;49.310;8.134;2023-06-14T02:28:31;19.10;66.50
3300;DHT22;1662;49.310;8.134;2023-06-14T02:30:56;19.10;66.60
3300;DHT22;1662;49.310;8.134;2023-06-14T02:33:22;19.00;66.40
3300;DHT22;1662;49.310;8.134;2023-06-14T02:35:48;19.00;66.30
3300;DHT22;1662;49.310;8.134;2023-06-14T02:38:13;19.00;67.00
3300;DHT22;1662;49.310;8.134;2023-06-14T02:40:39;18.90;66.90
3300;DHT22;1662;49.310;8.134;2023-06-14T02:43:07;19.00;66.80
3300;DHT22;1662;49.310;8.134;2023-06-14T02:45:33;18.90;67.00
3300;DHT22;1662;49.310;8.134;2023-06-14T02:47:59;19.00;67.20
3300;DHT22;1662;49.310;8.134;2023-06-14T02:50:24;18.90;67.40
3300;DHT22;1662;49.310;8.134;2023-06-14T02:52:50;18.90;67.40
3300;DHT22;1662;49.310;8.134;2023-06-14T02:55:17;18.90;67.40
3300;DHT22;1662;49.310;8.134;2023-06-14T02:57:43;18.90;67.40
3300;DHT22;1662;49.310;8.134;2023-06-14T03:00:09;18.90;67.40
3300;DHT22;1662;49.310;8.134;2023-06-14T03:02:38;18.90;67.80
3300;DHT22;1662;49.310;8.134;2023-06-14T03:05:04;18.80;67.70
3300;DHT22;1662;49.310;8.134;2023-06-14T03:07:31;18.80;67.50
3300;DHT22;1662;49.310;8.134;2023-06-14T03:09:58;18.90;67.60
3300;DHT22;1662;49.310;8.134;2023-06-14T03:12:23;18.80;67.70
3300;DHT22;1662;49.310;8.134;2023-06-14T03:14:50;18.80;67.60
3300;DHT22;1662;49.310;8.134;2023-06-14T03:17:17;18.80;67.70
3300;DHT22;1662;49.310;8.134;2023-06-14T03:19:43;18.80;67.80
3300;DHT22;1662;49.310;8.134;2023-06-14T03:22:08;18.80;67.90
3300;DHT22;1662;49.310;8.134;2023-06-14T03:24:34;18.80;68.10
3300;DHT22;1662;49.310;8.134;2023-06-14T03:27:02;18.70;68.20
3300;DHT22;1662;49.310;8.134;2023-06-14T03:29:28;18.70;68.00
3300;DHT22;1662;49.310;8.134;2023-06-14T03:31:59;18.70;68.20
3300;DHT22;1662;49.310;8.134;2023-06-14T03:34:25;18.70;68.20
3300;DHT22;1662;49.310;8.134;2023-06-14T03:36:50;18.70;68.30
3300;DHT22;1662;49.310;8.134;2023-06-14T03:39:16;18.70;68.30
3300;DHT22;1662;49.310;8.134;2023-06-14T03:41:42;18.70;68.20
3300;DHT22;1662;49.310;8.134;2023-06-14T03:44:07;18.70;68.40
3300;DHT22;1662;49.310;8.134;2023-06-14T03:46:33;18.70;68.30
3300;DHT22;1662;49.310;8.134;2023-06-14T03:48:58;18.70;68.40
3300;DHT22;1662;49.310;8.134;2023-06-14T03:51:25;18.70;68.30
3300;DHT22;1662;49.310;8.134;2023-06-14T03:53:51;18.70;68.50
3300;DHT22;1662;49.310;8.134;2023-06-14T03:56:17;18.70;68.70
3300;DHT22;1662;49.310;8.134;2023-06-14T03:58:42;18.70;68.50
3300;DHT22;1662;49.310;8.134;2023-06-14T04:01:08;18.70;69.00
3300;DHT22;1662;49.310;8.134;2023-06-14T04:03:33;18.70;69.50
3300;DHT22;1662;49.310;8.134;2023-06-14T04:06:00;18.70;69.70
3300;DHT22;1662;49.310;8.134;2023-06-14T04:08:26;18.70;70.30
3300;DHT22;1662;49.310;8.134;2023-06-14T04:10:53;18.70;69.60
3300;DHT22;1662;49.310;8.134;2023-06-14T04:13:19;18.60;70.50
3300;DHT22;1662;49.310;8.134;2023-06-14T04:15:45;18.60;70.50
3300;DHT22;1662;49.310;8.134;2023-06-14T04:18:11;18.60;70.40
3300;DHT22;1662;49.310;8.134;2023-06-14T04:20:37;18.60;70.70
3300;DHT22;1662;49.310;8.134;2023-06-14T04:25:38;18.60;71.30
3300;DHT22;1662;49.310;8.134;2023-06-14T04:28:04;18.60;71.60
3300;DHT22;1662;49.310;8.134;2023-06-14T04:30:29;18.70;70.10
3300;DHT22;1662;49.310;8.134;2023-06-14T04:32:57;18.80;67.10
3300;DHT22;1662;49.310;8.134;2023-06-14T04:35:22;18.80;68.20
3300;DHT22;1662;49.310;8.134;2023-06-14T04:37:52;19.00;66.80
3300;DHT22;1662;49.310;8.134;2023-06-14T04:40:18;19.00;67.90
3300;DHT22;1662;49.310;8.134;2023-06-14T04:42:44;19.10;71.90
3300;DHT22;1662;49.310;8.134;2023-06-14T04:45:11;19.20;72.20
3300;DHT22;1662;49.310;8.134;2023-06-14T04:47:38;19.10;70.50
3300;DHT22;1662;49.310;8.134;2023-06-14T04:50:04;19.10;70.80
3300;DHT22;1662;49.310;8.134;2023-06-14T04:52:30;19.00;71.50
3300;DHT22;1662;49.310;8.134;2023-06-14T04:54:57;18.90;72.80
3300;DHT22;1662;49.310;8.134;2023-06-14T04:57:23;18.80;72.50
3300;DHT22;1662;49.310;8.134;2023-06-14T04:59:51;18.80;72.40
3300;DHT22;1662;49.310;8.134;2023-06-14T05:02:21;18.80;72.50
3300;DHT22;1662;49.310;8.134;2023-06-14T05:04:47;18.80;72.10
3300;DHT22;1662;49.310;8.134;2023-06-14T05:07:13;18.80;72.40
3300;DHT22;1662;49.310;8.134;2023-06-14T05:09:39;18.80;72.20
3300;DHT22;1662;49.310;8.134;2023-06-14T05:12:05;18.80;70.30
3300;DHT22;1662;49.310;8.134;2023-06-14T05:14:34;18.90;70.70
3300;DHT22;1662;49.310;8.134;2023-06-14T05:17:00;19.00;70.00
3300;DHT22;1662;49.310;8.134;2023-06-14T05:19:25;19.20;69.50
3300;DHT22;1662;49.310;8.134;2023-06-14T05:21:51;19.30;71.10
3300;DHT22;1662;49.310;8.134;2023-06-14T05:24:18;19.30;70.10
3300;DHT22;1662;49.310;8.134;2023-06-14T05:26:43;19.40;69.70
3300;DHT22;1662;49.310;8.134;2023-06-14T05:29:12;19.40;68.80
3300;DHT22;1662;49.310;8.134;2023-06-14T05:31:38;19.40;69.40
3300;DHT22;1662;49.310;8.134;2023-06-14T05:34:04;19.50;69.10
3300;DHT22;1662;49.310;8.134;2023-06-14T05:36:30;19.40;70.20
3300;DHT22;1662;49.310;8.134;2023-06-14T05:38:55;19.40;68.50
3300;DHT22;1662;49.310;8.134;2023-06-14T05:41:24;19.40;68.40
3300;DHT22;1662;49.310;8.134;2023-06-14T05:43:51;19.50;70.70
3300;DHT22;1662;49.310;8.134;2023-06-14T05:46:17;19.50;70.10
3300;DHT22;1662;49.310;8.134;2023-06-14T05:48:47;19.60;70.20
3300;DHT22;1662;49.310;8.134;2023-06-14T05:51:13;19.60;69.80
3300;DHT22;1662;49.310;8.134;2023-06-14T05:53:39;19.60;69.40
3300;DHT22;1662;49.310;8.134;2023-06-14T05:56:04;19.60;71.20
3300;DHT22;1662;49.310;8.134;2023-06-14T05:58:30;19.60;70.40
3300;DHT22;1662;49.310;8.134;2023-06-14T06:00:55;19.60;71.00
3300;DHT22;1662;49.310;8.134;2023-06-14T06:03:23;19.50;71.90
3300;DHT22;1662;49.310;8.134;2023-06-14T06:05:48;19.60;70.80
3300;DHT22;1662;49.310;8.134;2023-06-14T06:08:14;19.60;71.60
3300;DHT22;1662;49.310;8.134;2023-06-14T06:10:45;19.70;71.00
3300;DHT22;1662;49.310;8.134;2023-06-14T06:13:13;19.70;72.10
3300;DHT22;1662;49.310;8.134;2023-06-14T06:15:38;19.80;80.00
3300;DHT22;1662;49.310;8.134;2023-06-14T06:18:04;19.80;73.00
3300;DHT22;1662;49.310;8.134;2023-06-14T06:20:30;19.80;72.10
3300;DHT22;1662;49.310;8.134;2023-06-14T06:23:00;19.90;73.60
3300;DHT22;1662;49.310;8.134;2023-06-14T06:25:26;19.90;74.60
3300;DHT22;1662;49.310;8.134;2023-06-14T06:27:57;21.00;71.60
3300;DHT22;1662;49.310;8.134;2023-06-14T06:30:23;20.10;70.70
3300;DHT22;1662;49.310;8.134;2023-06-14T06:32:49;19.60;71.80
3300;DHT22;1662;49.310;8.134;2023-06-14T06:35:14;20.10;71.10
3300;DHT22;1662;49.310;8.134;2023-06-14T06:37:42;20.20;71.20
3300;DHT22;1662;49.310;8.134;2023-06-14T06:40:08;20.20;71.20
3300;DHT22;1662;49.310;8.134;2023-06-14T06:42:34;20.20;72.60
3300;DHT22;1662;49.310;8.134;2023-06-14T06:45:00;20.30;72.80
3300;DHT22;1662;49.310;8.134;2023-06-14T06:47:26;20.30;72.20
3300;DHT22;1662;49.310;8.134;2023-06-14T06:49:52;20.30;71.60
3300;DHT22;1662;49.310;8.134;2023-06-14T06:52:20;20.30;72.60
3300;DHT22;1662;49.310;8.134;2023-06-14T06:54:46;20.30;72.20
3300;DHT22;1662;49.310;8.134;2023-06-14T06:57:23;20.40;73.80
3300;DHT22;1662;49.310;8.134;2023-06-14T06:59:49;20.40;72.60
3300;DHT22;1662;49.310;8.134;2023-06-14T07:02:15;20.40;71.90
3300;DHT22;1662;49.310;8.134;2023-06-14T07:04:41;20.50;72.90
3300;DHT22;1662;49.310;8.134;2023-06-14T07:07:13;20.50;72.30
3300;DHT22;1662;49.310;8.134;2023-06-14T07:09:39;20.50;71.30
3300;DHT22;1662;49.310;8.134;2023-06-14T07:15:20;20.70;72.80
3300;DHT22;1662;49.310;8.134;2023-06-14T07:17:45;20.70;72.30
3300;DHT22;1662;49.310;8.134;2023-06-14T07:20:11;20.70;73.40
3300;DHT22;1662;49.310;8.134;2023-06-14T07:22:42;20.80;73.40
3300;DHT22;1662;49.310;8.134;2023-06-14T07:25:09;20.80;72.60
3300;DHT22;1662;49.310;8.134;2023-06-14T07:27:35;20.90;73.20
3300;DHT22;1662;49.310;8.134;2023-06-14T07:30:01;21.00;73.20
3300;DHT22;1662;49.310;8.134;2023-06-14T07:32:26;21.00;73.90
3300;DHT22;1662;49.310;8.134;2023-06-14T07:34:52;21.00;72.20
3300;DHT22;1662;49.310;8.134;2023-06-14T07:37:17;21.10;73.50
3300;DHT22;1662;49.310;8.134;2023-06-14T07:39:45;21.10;73.40
3300;DHT22;1662;49.310;8.134;2023-06-14T07:42:11;21.20;73.10
3300;DHT22;1662;49.310;8.134;2023-06-14T07:44:36;21.20;73.60
3300;DHT22;1662;49.310;8.134;2023-06-14T07:47:02;21.30;72.90
3300;DHT22;1662;49.310;8.134;2023-06-14T07:49:30;21.30;72.90
3300;DHT22;1662;49.310;8.134;2023-06-14T07:51:56;21.40;73.90
3300;DHT22;1662;49.310;8.134;2023-06-14T07:54:21;21.40;73.70
3300;DHT22;1662;49.310;8.134;2023-06-14T07:56:52;21.50;73.70
3300;DHT22;1662;49.310;8.134;2023-06-14T07:59:17;21.60;73.20
3300;DHT22;1662;49.310;8.134;2023-06-14T08:01:43;21.70;73.30
3300;DHT22;1662;49.310;8.134;2023-06-14T08:04:13;21.70;73.50
3300;DHT22;1662;49.310;8.134;2023-06-14T08:06:38;21.80;73.40
3300;DHT22;1662;49.310;8.134;2023-06-14T08:09:09;21.90;73.40
3300;DHT22;1662;49.310;8.134;2023-06-14T08:11:35;22.00;73.40
3300;DHT22;1662;49.310;8.134;2023-06-14T08:14:04;22.00;72.10
3300;DHT22;1662;49.310;8.134;2023-06-14T08:16:29;22.10;72.60
3300;DHT22;1662;49.310;8.134;2023-06-14T08:18:55;22.20;72.50
3300;DHT22;1662;49.310;8.134;2023-06-14T08:21:21;22.30;72.40
3300;DHT22;1662;49.310;8.134;2023-06-14T08:23:47;22.30;72.20
3300;DHT22;1662;49.310;8.134;2023-06-14T08:26:13;22.40;72.70
3300;DHT22;1662;49.310;8.134;2023-06-14T08:28:38;22.50;72.60
3300;DHT22;1662;49.310;8.134;2023-06-14T08:31:04;22.60;72.40
3300;DHT22;1662;49.310;8.134;2023-06-14T08:33:30;22.70;72.30
3300;DHT22;1662;49.310;8.134;2023-06-14T08:35:59;22.70;72.70
3300;DHT22;1662;49.310;8.134;2023-06-14T08:38:25;22.70;73.20
3300;DHT22;1662;49.310;8.134;2023-06-14T08:40:52;22.80;72.50
3300;DHT22;1662;49.310;8.134;2023-06-14T08:43:22;22.90;72.20
3300;DHT22;1662;49.310;8.134;2023-06-14T08:45:48;23.00;72.20
3300;DHT22;1662;49.310;8.134;2023-06-14T08:48:18;23.10;72.30
3300;DHT22;1662;49.310;8.134;2023-06-14T08:50:47;23.20;74.60
3300;DHT22;1662;49.310;8.134;2023-06-14T08:53:14;23.20;74.90
3300;DHT22;1662;49.310;8.134;2023-06-14T08:55:45;23.30;75.60
3300;DHT22;1662;49.310;8.134;2023-06-14T08:58:13;23.30;77.40
3300;DHT22;1662;49.310;8.134;2023-06-14T09:00:40;23.40;83.30
3300;DHT22;1662;49.310;8.134;2023-06-14T09:03:07;23.50;74.30
3300;DHT22;1662;49.310;8.134;2023-06-14T09:05:38;23.70;80.00
3300;DHT22;1662;49.310;8.134;2023-06-14T09:08:04;23.90;85.10
3300;DHT22;1662;49.310;8.134;2023-06-14T09:10:31;26.70;73.60
3300;DHT22;1662;49.310;8.134;2023-06-14T09:13:00;24.00;71.10
3300;DHT22;1662;49.310;8.134;2023-06-14T09:15:26;24.20;70.70
3300;DHT22;1662;49.310;8.134;2023-06-14T09:17:53;24.30;69.40
3300;DHT22;1662;49.310;8.134;2023-06-14T09:20:18;24.40;68.30
3300;DHT22;1662;49.310;8.134;2023-06-14T09:22:45;24.40;67.90
3300;DHT22;1662;49.310;8.134;2023-06-14T09:25:11;24.40;68.10
3300;DHT22;1662;49.310;8.134;2023-06-14T09:27:40;24.50;73.40
3300;DHT22;1662;49.310;8.134;2023-06-14T09:30:09;24.70;69.90
3300;DHT22;1662;49.310;8.134;2023-06-14T09:32:38;24.70;81.80
3300;DHT22;1662;49.310;8.134;2023-06-14T09:35:07;24.80;66.20
3300;DHT22;1662;49.310;8.134;2023-06-14T09:37:34;24.90;66.30
3300;DHT22;1662;49.310;8.134;2023-06-14T09:40:00;25.00;66.40
3300;DHT22;1662;49.310;8.134;2023-06-14T09:42:26;25.10;66.10
3300;DHT22;1662;49.310;8.134;2023-06-14T09:44:54;25.10;66.30
3300;DHT22;1662;49.310;8.134;2023-06-14T09:47:21;25.20;64.60
3300;DHT22;1662;49.310;8.134;2023-06-14T09:49:47;25.30;64.40
3300;DHT22;1662;49.310;8.134;2023-06-14T09:52:18;25.40;65.80
3300;DHT22;1662;49.310;8.134;2023-06-14T09:54:47;25.50;65.40
3300;DHT22;1662;49.310;8.134;2023-06-14T09:57:15;25.60;66.10
3300;DHT22;1662;49.310;8.134;2023-06-14T09:59:45;25.70;66.40
3300;DHT22;1662;49.310;8.134;2023-06-14T10:02:31;25.70;67.30
3300;DHT22;1662;49.310;8.134;2023-06-14T10:05:05;25.90;65.30
3300;DHT22;1662;49.310;8.134;2023-06-14T10:07:53;25.90;64.00
3300;DHT22;1662;49.310;8.134;2023-06-14T10:10:21;25.90;66.60
3300;DHT22;1662;49.310;8.134;2023-06-14T10:12:47;25.40;69.10
3300;DHT22;1662;49.310;8.134;2023-06-14T10:15:19;26.10;65.40
3300;DHT22;1662;49.310;8.134;2023-06-14T10:17:55;26.20;63.90
3300;DHT22;1662;49.310;8.134;2023-06-14T10:20:37;26.40;64.40
3300;DHT22;1662;49.310;8.134;2023-06-14T10:23:18;26.40;64.40
3300;DHT22;1662;49.310;8.134;2023-06-14T10:25:45;26.50;63.10
3300;DHT22;1662;49.310;8.134;2023-06-14T10:28:20;26.70;63.40
3300;DHT22;1662;49.310;8.134;2023-06-14T10:31:10;26.70;62.80
3300;DHT22;1662;49.310;8.134;2023-06-14T10:33:48;26.70;63.30
3300;DHT22;1662;49.310;8.134;2023-06-14T10:36:26;26.90;62.50
3300;DHT22;1662;49.310;8.134;2023-06-14T10:41:40;27.00;61.70
3300;DHT22;1662;49.310;8.134;2023-06-14T10:46:57;27.10;60.40
3300;DHT22;1662;49.310;8.134;2023-06-14T10:49:41;27.20;61.70
3300;DHT22;1662;49.310;8.134;2023-06-14T10:52:12;27.30;61.30
3300;DHT22;1662;49.310;8.134;2023-06-14T10:57:30;27.60;62.10
3300;DHT22;1662;49.310;8.134;2023-06-14T11:00:03;27.60;61.90
3300;DHT22;1662;49.310;8.134;2023-06-14T11:11:14;28.10;59.60
3300;DHT22;1662;49.310;8.134;2023-06-14T11:13:43;28.10;59.40
3300;DHT22;1662;49.310;8.134;2023-06-14T11:16:14;28.20;60.50
3300;DHT22;1662;49.310;8.134;2023-06-14T11:18:41;28.30;58.90
3300;DHT22;1662;49.310;8.134;2023-06-14T11:21:06;28.30;59.30
3300;DHT22;1662;49.310;8.134;2023-06-14T11:23:34;28.30;58.10
3300;DHT22;1662;49.310;8.134;2023-06-14T11:26:00;28.30;57.90
3300;DHT22;1662;49.310;8.134;2023-06-14T11:28:38;28.40;58.70
3300;DHT22;1662;49.310;8.134;2023-06-14T11:31:05;28.40;58.80
3300;DHT22;1662;49.310;8.134;2023-06-14T11:33:34;28.50;59.30
3300;DHT22;1662;49.310;8.134;2023-06-14T11:36:02;28.50;59.20
3300;DHT22;1662;49.310;8.134;2023-06-14T11:38:28;28.60;58.00
3300;DHT22;1662;49.310;8.134;2023-06-14T11:40:58;28.60;57.00
3300;DHT22;1662;49.310;8.134;2023-06-14T11:43:25;28.50;57.20
3300;DHT22;1662;49.310;8.134;2023-06-14T11:45:52;28.50;58.00
3300;DHT22;1662;49.310;8.134;2023-06-14T11:48:20;28.60;56.70
3300;DHT22;1662;49.310;8.134;2023-06-14T11:50:49;28.60;58.10
3300;DHT22;1662;49.310;8.134;2023-06-14T11:53:16;28.70;56.70
3300;DHT22;1662;49.310;8.134;2023-06-14T11:55:42;28.60;57.00
3300;DHT22;1662;49.310;8.134;2023-06-14T11:58:10;28.60;56.70
3300;DHT22;1662;49.310;8.134;2023-06-14T12:00:36;28.50;56.30
3300;DHT22;1662;49.310;8.134;2023-06-14T12:03:02;28.80;58.30
3300;DHT22;1662;49.310;8.134;2023-06-14T12:05:28;28.80;57.70
3300;DHT22;1662;49.310;8.134;2023-06-14T12:08:02;29.10;57.20
3300;DHT22;1662;49.310;8.134;2023-06-14T12:10:29;29.20;57.90
3300;DHT22;1662;49.310;8.134;2023-06-14T12:12:59;29.60;58.40
3300;DHT22;1662;49.310;8.134;2023-06-14T12:15:28;29.70;57.10
3300;DHT22;1662;49.310;8.134;2023-06-14T12:17:57;29.60;56.30
3300;DHT22;1662;49.310;8.134;2023-06-14T12:20:23;29.70;56.00
3300;DHT22;1662;49.310;8.134;2023-06-14T12:22:54;30.00;57.50
3300;DHT22;1662;49.310;8.134;2023-06-14T12:28:12;30.30;57.10
3300;DHT22;1662;49.310;8.134;2023-06-14T12:30:38;30.40;57.20
3300;DHT22;1662;49.310;8.134;2023-06-14T12:35:30;30.50;56.60
3300;DHT22;1662;49.310;8.134;2023-06-14T12:37:56;30.20;56.60
3300;DHT22;1662;49.310;8.134;2023-06-14T12:40:22;30.20;57.30
3300;DHT22;1662;49.310;8.134;2023-06-14T12:42:48;30.50;56.90
3300;DHT22;1662;49.310;8.134;2023-06-14T12:45:14;30.70;55.30
3300;DHT22;1662;49.310;8.134;2023-06-14T12:47:39;30.60;56.00
3300;DHT22;1662;49.310;8.134;2023-06-14T12:50:07;30.60;57.20
3300;DHT22;1662;49.310;8.134;2023-06-14T12:52:33;30.70;55.60
3300;DHT22;1662;49.310;8.134;2023-06-14T12:55:04;30.40;55.30
3300;DHT22;1662;49.310;8.134;2023-06-14T12:57:30;30.40;55.30
3300;DHT22;1662;49.310;8.134;2023-06-14T12:59:56;30.80;55.60
3300;DHT22;1662;49.310;8.134;2023-06-14T13:02:22;30.70;54.10
3300;DHT22;1662;49.310;8.134;2023-06-14T13:04:49;30.60;55.40
3300;DHT22;1662;49.310;8.134;2023-06-14T13:07:15;30.90;55.60
3300;DHT22;1662;49.310;8.134;2023-06-14T13:09:42;31.00;54.40
3300;DHT22;1662;49.310;8.134;2023-06-14T13:12:10;31.00;55.20
3300;DHT22;1662;49.310;8.134;2023-06-14T13:14:36;31.00;55.20
3300;DHT22;1662;49.310;8.134;2023-06-14T13:17:02;31.00;56.00
3300;DHT22;1662;49.310;8.134;2023-06-14T13:19:28;31.10;57.00
3300;DHT22;1662;49.310;8.134;2023-06-14T13:21:53;31.10;55.80
3300;DHT22;1662;49.310;8.134;2023-06-14T13:24:19;31.20;56.50
3300;DHT22;1662;49.310;8.134;2023-06-14T13:26:45;31.20;54.50
3300;DHT22;1662;49.310;8.134;2023-06-14T13:29:10;31.50;54.50
3300;DHT22;1662;49.310;8.134;2023-06-14T13:31:36;31.40;55.30
3300;DHT22;1662;49.310;8.134;2023-06-14T13:34:04;31.10;54.30
3300;DHT22;1662;49.310;8.134;2023-06-14T13:36:30;31.10;53.70
3300;DHT22;1662;49.310;8.134;2023-06-14T13:38:55;31.10;55.70
3300;DHT22;1662;49.310;8.134;2023-06-14T13:41:21;31.60;54.60
3300;DHT22;1662;49.310;8.134;2023-06-14T13:43:47;31.80;54.50
3300;DHT22;1662;49.310;8.134;2023-06-14T13:46:13;31.70;54.40
3300;DHT22;1662;49.310;8.134;2023-06-14T13:48:38;31.80;56.30
3300;DHT22;1662;49.310;8.134;2023-06-14T13:51:04;31.90;54.80
3300;DHT22;1662;49.310;8.134;2023-06-14T13:53:30;32.00;54.60
3300;DHT22;1662;49.310;8.134;2023-06-14T13:55:55;31.80;53.70
3300;DHT22;1662;49.310;8.134;2023-06-14T13:58:21;31.20;55.30
3300;DHT22;1662;49.310;8.134;2023-06-14T14:00:47;31.60;55.20
3300;DHT22;1662;49.310;8.134;2023-06-14T14:03:13;31.70;55.60
3300;DHT22;1662;49.310;8.134;2023-06-14T14:05:41;31.90;55.20
3300;DHT22;1662;49.310;8.134;2023-06-14T14:08:07;32.20;55.40
3300;DHT22;1662;49.310;8.134;2023-06-14T14:10:34;32.40;55.60
3300;DHT22;1662;49.310;8.134;2023-06-14T14:13:00;32.50;55.80
3300;DHT22;1662;49.310;8.134;2023-06-14T14:15:26;32.60;54.70
3300;DHT22;1662;49.310;8.134;2023-06-14T14:17:52;32.40;54.40
3300;DHT22;1662;49.310;8.134;2023-06-14T14:20:20;32.20;54.10
3300;DHT22;1662;49.310;8.134;2023-06-14T14:22:45;31.90;54.30
3300;DHT22;1662;49.310;8.134;2023-06-14T14:25:11;32.00;54.20
3300;DHT22;1662;49.310;8.134;2023-06-14T14:27:36;32.20;56.10
3300;DHT22;1662;49.310;8.134;2023-06-14T14:30:05;32.60;53.80
3300;DHT22;1662;49.310;8.134;2023-06-14T14:32:31;32.60;53.40
3300;DHT22;1662;49.310;8.134;2023-06-14T14:34:57;32.70;54.60
3300;DHT22;1662;49.310;8.134;2023-06-14T14:37:22;32.40;53.80
3300;DHT22;1662;49.310;8.134;2023-06-14T14:39:48;32.40;54.20
3300;DHT22;1662;49.310;8.134;2023-06-14T14:42:13;32.10;54.00
3300;DHT22;1662;49.310;8.134;2023-06-14T14:44:41;32.00;53.80
3300;DHT22;1662;49.310;8.134;2023-06-14T14:47:07;32.00;55.30
3300;DHT22;1662;49.310;8.134;2023-06-14T14:49:33;32.20;53.80
3300;DHT22;1662;49.310;8.134;2023-06-14T14:51:58;32.50;53.70
3300;DHT22;1662;49.310;8.134;2023-06-14T14:54:24;32.80;54.30
3300;DHT22;1662;49.310;8.134;2023-06-14T14:56:51;32.90;54.40
3300;DHT22;1662;49.310;8.134;2023-06-14T14:59:16;33.00;52.40
3300;DHT22;1662;49.310;8.134;2023-06-14T15:01:42;32.90;52.40
3300;DHT22;1662;49.310;8.134;2023-06-14T15:04:08;32.80;53.20
3300;DHT22;1662;49.310;8.134;2023-06-14T15:06:33;32.70;52.40
3300;DHT22;1662;49.310;8.134;2023-06-14T15:09:03;32.50;51.90
3300;DHT22;1662;49.310;8.134;2023-06-14T15:11:29;32.10;52.60
3300;DHT22;1662;49.310;8.134;2023-06-14T15:13:54;31.40;53.30
3300;DHT22;1662;49.310;8.134;2023-06-14T15:16:20;31.40;54.80
3300;DHT22;1662;49.310;8.134;2023-06-14T15:18:48;32.00;53.60
3300;DHT22;1662;49.310;8.134;2023-06-14T15:21:16;32.10;53.50
3300;DHT22;1662;49.310;8.134;2023-06-14T15:23:45;32.10;53.30
3300;DHT22;1662;49.310;8.134;2023-06-14T15:26:11;32.30;53.60
3300;DHT22;1662;49.310;8.134;2023-06-14T15:28:37;32.20;52.20
3300;DHT22;1662;49.310;8.134;2023-06-14T15:31:02;31.50;52.70
3300;DHT22;1662;49.310;8.134;2023-06-14T15:33:28;31.20;54.20
3300;DHT22;1662;49.310;8.134;2023-06-14T15:35:53;31.40;53.40
3300;DHT22;1662;49.310;8.134;2023-06-14T15:38:20;31.60;53.10
3300;DHT22;1662;49.310;8.134;2023-06-14T15:40:47;31.60;52.80
3300;DHT22;1662;49.310;8.134;2023-06-14T15:43:12;31.80;53.40
3300;DHT22;1662;49.310;8.134;2023-06-14T15:45:38;31.90;52.80
3300;DHT22;1662;49.310;8.134;2023-06-14T15:48:05;31.90;52.70
3300;DHT22;1662;49.310;8.134;2023-06-14T15:50:30;32.10;52.80
3300;DHT22;1662;49.310;8.134;2023-06-14T15:52:57;31.80;54.40
3300;DHT22;1662;49.310;8.134;2023-06-14T15:55:24;31.90;53.70
3300;DHT22;1662;49.310;8.134;2023-06-14T15:57:50;31.90;53.50
3300;DHT22;1662;49.310;8.134;2023-06-14T16:00:16;31.80;53.60
3300;DHT22;1662;49.310;8.134;2023-06-14T16:02:42;31.80;53.90
3300;DHT22;1662;49.310;8.134;2023-06-14T16:05:07;31.80;54.10
3300;DHT22;1662;49.310;8.134;2023-06-14T16:07:35;32.00;53.70
3300;DHT22;1662;49.310;8.134;2023-06-14T16:10:01;32.20;52.50
3300;DHT22;1662;49.310;8.134;2023-06-14T16:12:27;31.70;53.50
3300;DHT22;1662;49.310;8.134;2023-06-14T16:14:52;31.60;53.30
3300;DHT22;1662;49.310;8.134;2023-06-14T16:17:19;31.20;53.80
3300;DHT22;1662;49.310;8.134;2023-06-14T16:19:45;31.30;54.80
3300;DHT22;1662;49.310;8.134;2023-06-14T16:22:10;31.60;53.40
3300;DHT22;1662;49.310;8.134;2023-06-14T16:24:36;31.90;52.70
3300;DHT22;1662;49.310;8.134;2023-06-14T16:27:02;31.90;52.90
3300;DHT22;1662;49.310;8.134;2023-06-14T16:29:29;32.10;53.10
3300;DHT22;1662;49.310;8.134;2023-06-14T16:31:55;31.90;52.80